• Join FlightAware (Why Join?)
  • Login
  • US Flag 
03:23PM EDT


 

Airport Tracker/Info


-or-


 

Live Flight TrackerFlight Track Log ✈ KAP305 ✈ 10-Jun-2013 ✈ KBOS - KACK

Flight Track Log - Related Links

Times and Time Zones

All times are in EDT time to prevent confusion due to time zone crossing. See the KAP305 flight status page for this flight to view local times or setup timezone preferences in your user account.

Time Position Orientation Groundspeed Altitude Reporting Facility
EDT Latitude Longitude Course Direction KTS MPH feet Rate Location/Type
03:59PM 42.3500 -70.9833 124° Southeast 120 138 500  Level KA90
04:00PM 42.3333 -70.9500 124° Southeast 111 128 1,100 540 Climbing KA90
04:01PM 42.3167 -70.9167 124° Southeast 112 129 1,600 540 Climbing KA90
04:02PM 42.3000 -70.8833 124° Southeast 119 137 2,200 540 Climbing KA90
04:03PM 42.2833 -70.8500 124° Southeast 117 135 2,700 540 Climbing KA90
04:04PM 42.2500 -70.8333 160° South 121 139 3,300 600 Climbing KA90
04:06PM 42.2632 -70.7672 75° East  Level FlightAware Approximate
04:13PM 42.0087 -70.5867 116° Southeast  Level Estimated
04:14PM 41.9723 -70.5610 114° Southeast  Level Estimated
04:15PM 41.9770 -70.5061 83° East  Level FlightAware Approximate
04:16PM 41.9817 -70.4512 83° East  Level FlightAware Approximate
04:17PM 41.9864 -70.3963 83° East  Level FlightAware Approximate
04:18PM 41.9911 -70.3413 83° East  Level FlightAware Approximate
04:19PM 41.9957 -70.2864 84° East  Level FlightAware Approximate
04:20PM 42.0003 -70.2315 84° East  Level FlightAware Approximate
04:21PM 41.9598 -70.2221 180° South  Level Estimated
04:22PM 41.9215 -70.2019 159° South  Level FlightAware Approximate
04:23PM 41.8833 -70.1818 159° South  Level FlightAware Approximate
04:24PM 41.8450 -70.1616 159° South  Level FlightAware Approximate
04:25PM 41.8068 -70.1415 159° South  Level FlightAware Approximate
04:26PM 41.7685 -70.1215 159° South  Level FlightAware Approximate
04:27PM 41.7302 -70.1014 159° South  Level FlightAware Approximate
04:28PM 41.6920 -70.0814 159° South  Level FlightAware Approximate
04:29PM 41.6537 -70.0613 159° South  Level FlightAware Approximate
04:30PM 41.6154 -70.0414 159° South  Level FlightAware Approximate
04:31PM 41.5784 -70.0377 189° South  Level FlightAware Approximate
04:32PM 41.5378 -70.0458 189° South  Level FlightAware Approximate
04:33PM 41.4969 -70.0500 180° South  Level FlightAware Approximate
04:34PM 41.4559 -70.0500 180° South  Level FlightAware Approximate
04:35PM 41.4148 -70.0500 180° South  Level FlightAware Approximate
04:36PM 41.3737 -70.0500 180° South  Level FlightAware Approximate
04:37PM 41.3326 -70.0500 180° South  Level FlightAware Approximate
04:38PM 41.2915 -70.0500 180° South  Level FlightAware Approximate
04:39PM 41.2504 -70.0500 180° South  Level FlightAware Approximate
04:40PM 41.2500 -70.0500 180° South  Level FlightAware Approximate
04:41PM 41.2531 -70.0603 180° South  Level Estimated
04:42PM 41.2531 -70.0603 180° South  Level Estimated